createdAt,value
2018-07-16T00:02:24.482Z,6.10
2018-07-16T00:04:51.697Z,6.87
2018-07-16T00:07:18.982Z,6.73
2018-07-16T00:09:46.218Z,6.93
2018-07-16T00:12:13.470Z,5.90
2018-07-16T00:14:40.760Z,6.40
2018-07-16T00:17:07.970Z,5.90
2018-07-16T00:19:35.229Z,6.10
2018-07-16T00:22:02.485Z,6.40
2018-07-16T00:24:29.754Z,6.20
2018-07-16T00:26:57.013Z,7.27
2018-07-16T00:29:24.271Z,6.20
2018-07-16T00:31:51.553Z,6.77
2018-07-16T00:34:18.946Z,5.87
2018-07-16T00:36:46.213Z,6.50
2018-07-16T00:39:13.746Z,6.07
2018-07-16T00:41:41.132Z,6.70
2018-07-16T00:44:08.344Z,6.23
2018-07-16T00:46:35.567Z,5.70
2018-07-16T00:49:02.929Z,6.33
2018-07-16T00:51:30.149Z,6.70
2018-07-16T00:53:57.369Z,6.00
2018-07-16T00:56:24.635Z,6.40
2018-07-16T00:58:51.850Z,6.27
2018-07-16T01:01:19.097Z,5.70
2018-07-16T01:03:47.100Z,6.70
2018-07-16T01:06:14.326Z,6.60
2018-07-16T01:08:41.673Z,6.80
2018-07-16T01:11:08.906Z,7.33
2018-07-16T01:13:36.183Z,7.07
2018-07-16T01:16:03.446Z,8.03
2018-07-16T01:18:30.788Z,6.33
2018-07-16T01:20:58.014Z,6.37
2018-07-16T01:23:25.280Z,6.90
2018-07-16T01:25:52.530Z,7.50
2018-07-16T01:28:19.788Z,6.37
2018-07-16T01:30:47.110Z,7.20
2018-07-16T01:33:14.412Z,7.30
2018-07-16T01:35:41.661Z,7.00
2018-07-16T01:38:08.983Z,6.80
2018-07-16T01:40:36.217Z,6.97
2018-07-16T01:43:03.477Z,7.23
2018-07-16T01:45:31.130Z,6.67
2018-07-16T01:47:58.388Z,7.13
2018-07-16T01:50:25.628Z,7.03
2018-07-16T01:52:52.842Z,7.40
2018-07-16T01:55:20.110Z,6.73
2018-07-16T01:57:47.375Z,7.20
2018-07-16T02:00:14.609Z,7.90
2018-07-16T02:02:41.860Z,7.47
2018-07-16T02:05:09.086Z,6.80
2018-07-16T02:07:36.432Z,7.53
2018-07-16T02:10:03.672Z,8.03
2018-07-16T02:12:30.917Z,7.80
2018-07-16T02:14:58.141Z,8.23
2018-07-16T02:17:25.394Z,7.73
2018-07-16T02:19:52.815Z,7.63
2018-07-16T02:22:20.135Z,8.07
2018-07-16T02:24:47.342Z,9.20
2018-07-16T02:27:14.599Z,8.30
2018-07-16T02:29:41.944Z,8.30
2018-07-16T02:32:09.212Z,8.10
2018-07-16T02:34:36.455Z,8.30
2018-07-16T02:37:03.736Z,8.20
2018-07-16T02:39:31.051Z,9.27
2018-07-16T02:41:58.306Z,8.43
2018-07-16T02:44:25.529Z,8.93
2018-07-16T02:46:52.812Z,9.63
2018-07-16T02:49:20.374Z,9.07
2018-07-16T02:51:47.623Z,9.10
2018-07-16T02:54:14.907Z,10.13
2018-07-16T02:56:42.134Z,10.00
2018-07-16T02:59:09.374Z,9.30
2018-07-16T03:01:36.604Z,9.70
2018-07-16T03:04:03.890Z,9.60
2018-07-16T03:06:31.156Z,8.50
2018-07-16T03:08:58.381Z,8.37
2018-07-16T03:11:25.621Z,8.77
2018-07-16T03:13:52.930Z,10.27
2018-07-16T03:16:20.173Z,9.00
2018-07-16T03:18:48.416Z,7.73
2018-07-16T03:21:15.657Z,8.90
2018-07-16T03:23:42.904Z,10.03
2018-07-16T03:26:10.196Z,9.53
2018-07-16T03:28:37.405Z,9.00
2018-07-16T03:31:04.638Z,9.50
2018-07-16T03:33:31.852Z,8.63
2018-07-16T03:35:59.093Z,8.73
2018-07-16T03:38:26.376Z,8.77
2018-07-16T03:40:53.600Z,9.17
2018-07-16T03:43:21.566Z,10.20
2018-07-16T03:45:48.809Z,8.83
2018-07-16T03:48:16.041Z,7.77
2018-07-16T03:50:43.273Z,8.53
2018-07-16T03:53:10.501Z,8.97
2018-07-16T03:55:37.766Z,9.50
2018-07-16T03:58:05.091Z,9.43
2018-07-16T04:00:32.374Z,9.20
2018-07-16T04:02:59.650Z,9.73
2018-07-16T04:05:26.890Z,9.20
2018-07-16T04:07:54.246Z,8.60
2018-07-16T04:10:21.515Z,9.60
2018-07-16T04:12:48.785Z,10.20
2018-07-16T04:15:16.072Z,9.40
2018-07-16T04:17:43.310Z,9.97
2018-07-16T04:20:10.647Z,10.53
2018-07-16T04:22:37.885Z,11.20
2018-07-16T04:25:05.122Z,12.17
2018-07-16T04:27:32.380Z,11.33
2018-07-16T04:29:59.616Z,10.33
2018-07-16T04:32:26.897Z,10.80
2018-07-16T04:34:55.206Z,12.53
2018-07-16T04:37:36.872Z,12.30
2018-07-16T04:40:04.206Z,11.70
2018-07-16T04:42:31.466Z,11.27
2018-07-16T04:44:58.804Z,11.80
2018-07-16T04:47:26.017Z,10.80
2018-07-16T04:49:53.334Z,12.30
2018-07-16T04:52:20.742Z,12.40
2018-07-16T04:54:48.066Z,11.63
2018-07-16T04:57:15.389Z,11.50
2018-07-16T04:59:42.682Z,10.50
2018-07-16T05:02:09.962Z,11.60
2018-07-16T05:04:37.238Z,12.67
2018-07-16T05:07:04.498Z,12.73
2018-07-16T05:09:31.728Z,10.93
2018-07-16T05:11:59.005Z,11.17
2018-07-16T05:14:26.248Z,11.40
2018-07-16T05:16:53.604Z,11.47
2018-07-16T05:19:21.413Z,12.47
2018-07-16T05:21:48.649Z,11.23
2018-07-16T05:24:15.995Z,10.80
2018-07-16T05:26:43.254Z,11.47
2018-07-16T05:29:10.490Z,11.67
2018-07-16T05:31:37.872Z,10.80
2018-07-16T05:34:05.068Z,11.00
2018-07-16T05:36:32.311Z,10.87
2018-07-16T05:38:59.633Z,10.47
2018-07-16T05:41:26.918Z,10.87
2018-07-16T05:43:54.395Z,9.53
2018-07-16T05:46:23.631Z,9.90
2018-07-16T05:48:50.950Z,9.93
2018-07-16T05:51:18.182Z,10.00
2018-07-16T05:53:45.425Z,9.70
2018-07-16T05:56:12.685Z,10.37
2018-07-16T05:58:39.906Z,9.00
2018-07-16T06:01:07.152Z,8.87
2018-07-16T06:03:34.413Z,9.03
2018-07-16T06:06:01.732Z,8.40
2018-07-16T06:08:29.007Z,9.50
2018-07-16T06:10:56.258Z,8.87
2018-07-16T06:13:23.474Z,8.43
2018-07-16T06:15:50.766Z,9.37
2018-07-16T06:18:18.065Z,8.70
2018-07-16T06:20:45.313Z,8.50
2018-07-16T06:23:12.562Z,8.50
2018-07-16T06:25:39.813Z,8.53
2018-07-16T06:28:07.069Z,8.10
2018-07-16T06:30:34.334Z,8.20
2018-07-16T06:33:01.629Z,8.90
2018-07-16T06:35:28.940Z,7.70
2018-07-16T06:37:56.213Z,7.83
2018-07-16T06:40:23.948Z,8.20
2018-07-16T06:42:51.221Z,7.63
2018-07-16T06:45:18.534Z,8.20
2018-07-16T06:47:45.807Z,7.70
2018-07-16T06:50:13.035Z,7.33
2018-07-16T06:52:40.313Z,7.67
2018-07-16T06:55:07.730Z,7.30
2018-07-16T06:57:35.356Z,7.03
2018-07-16T07:00:02.616Z,6.73
2018-07-16T07:02:30.015Z,7.00
2018-07-16T07:04:57.258Z,7.10
2018-07-16T07:07:24.536Z,7.50
2018-07-16T07:09:51.774Z,8.20
2018-07-16T07:12:19.019Z,7.03
2018-07-16T07:14:46.286Z,6.90
2018-07-16T07:17:13.571Z,7.93
2018-07-16T07:19:40.811Z,7.63
2018-07-16T07:22:08.071Z,7.40
2018-07-16T07:24:35.321Z,6.57
2018-07-16T07:27:02.611Z,7.43
2018-07-16T07:29:29.880Z,6.50
2018-07-16T07:31:57.141Z,8.33
2018-07-16T07:34:24.426Z,7.20
2018-07-16T07:36:51.805Z,6.23
2018-07-16T07:39:19.279Z,8.03
2018-07-16T07:41:46.742Z,6.73
2018-07-16T07:44:14.130Z,7.17
2018-07-16T07:46:41.650Z,6.63
2018-07-16T07:49:09.050Z,7.00
2018-07-16T07:51:36.487Z,7.90
2018-07-16T07:54:03.960Z,7.60
2018-07-16T07:56:31.438Z,6.43
2018-07-16T07:58:58.840Z,6.50
2018-07-16T08:01:26.169Z,6.57
2018-07-16T08:03:53.439Z,6.23
2018-07-16T08:06:20.928Z,6.83
2018-07-16T08:08:49.258Z,6.83
2018-07-16T08:11:16.515Z,6.60
2018-07-16T08:13:43.837Z,6.57
2018-07-16T08:16:11.062Z,6.90
2018-07-16T08:18:38.305Z,6.57
2018-07-16T08:21:05.763Z,5.50
2018-07-16T08:23:32.922Z,5.70
2018-07-16T08:26:00.185Z,6.50
2018-07-16T08:28:27.457Z,5.80
2018-07-16T08:30:54.855Z,5.97
2018-07-16T08:33:22.110Z,6.20
2018-07-16T08:35:49.877Z,6.43
2018-07-16T08:38:17.128Z,5.60
2018-07-16T08:40:44.380Z,5.37
2018-07-16T08:43:11.624Z,5.73
2018-07-16T08:45:38.926Z,6.97
2018-07-16T08:48:06.309Z,5.80
2018-07-16T08:50:33.562Z,5.70
2018-07-16T08:53:00.798Z,5.43
2018-07-16T08:55:28.029Z,5.67
2018-07-16T08:57:55.285Z,5.10
2018-07-16T09:00:22.657Z,5.07
2018-07-16T09:02:49.949Z,4.43
2018-07-16T09:05:17.155Z,4.40
2018-07-16T09:07:44.373Z,4.57
2018-07-16T09:10:11.620Z,4.60
2018-07-16T09:12:38.869Z,4.93
2018-07-16T09:15:06.201Z,4.47
2018-07-16T09:17:33.458Z,5.53
2018-07-16T09:20:00.717Z,4.00
2018-07-16T09:22:27.950Z,4.67
2018-07-16T09:24:55.217Z,4.73
2018-07-16T09:27:22.517Z,5.53
2018-07-16T09:29:49.797Z,4.57
2018-07-16T09:32:17.118Z,4.50
2018-07-16T09:34:44.365Z,4.33
2018-07-16T09:37:11.608Z,5.43
2018-07-16T09:39:38.865Z,4.70
2018-07-16T09:42:06.185Z,4.40
2018-07-16T09:44:33.442Z,4.50
2018-07-16T09:47:00.828Z,4.60
2018-07-16T09:49:28.125Z,4.00
2018-07-16T09:51:55.428Z,3.80
2018-07-16T09:54:22.651Z,3.87
2018-07-16T09:56:49.926Z,3.90
2018-07-16T09:59:17.205Z,4.07
2018-07-16T10:01:49.060Z,4.20
2018-07-16T10:04:16.363Z,3.90
2018-07-16T10:06:43.652Z,3.60
2018-07-16T10:09:10.940Z,4.17
2018-07-16T10:11:38.269Z,3.93
2018-07-16T10:14:05.487Z,3.83
2018-07-16T10:16:32.748Z,3.77
2018-07-16T10:19:00.671Z,3.97
2018-07-16T10:21:28.019Z,4.30
2018-07-16T10:23:55.250Z,3.60
2018-07-16T10:26:22.478Z,4.23
2018-07-16T10:28:51.625Z,4.10
2018-07-16T10:31:18.915Z,4.80
2018-07-16T10:33:46.210Z,4.33
2018-07-16T10:36:13.430Z,4.20
2018-07-16T10:38:40.734Z,4.23
2018-07-16T10:41:08.010Z,3.93
2018-07-16T10:43:35.288Z,4.47
2018-07-16T10:46:02.631Z,3.80
2018-07-16T10:48:29.951Z,3.60
2018-07-16T10:50:57.310Z,3.87
2018-07-16T10:53:24.667Z,3.33
2018-07-16T10:55:51.923Z,3.53
2018-07-16T10:58:19.200Z,3.33
2018-07-16T11:00:46.501Z,3.93
2018-07-16T11:03:13.805Z,3.37
2018-07-16T11:05:41.162Z,2.93
2018-07-16T11:08:08.418Z,3.43
2018-07-16T11:10:35.695Z,4.07
2018-07-16T11:13:03.010Z,3.70
2018-07-16T11:15:30.427Z,3.67
2018-07-16T11:17:57.803Z,3.23
2018-07-16T11:20:25.083Z,3.33
2018-07-16T11:22:52.378Z,3.53
2018-07-16T11:25:19.616Z,3.23
2018-07-16T11:27:46.822Z,3.20
2018-07-16T11:30:14.061Z,3.33
2018-07-16T11:32:41.303Z,3.50
2018-07-16T11:35:08.545Z,3.37
2018-07-16T11:37:35.799Z,3.93
2018-07-16T11:40:03.062Z,3.80
2018-07-16T11:42:30.323Z,3.63
2018-07-16T11:44:57.558Z,3.40
2018-07-16T11:47:24.818Z,3.33
2018-07-16T11:49:52.053Z,3.27
2018-07-16T11:52:19.275Z,3.23
2018-07-16T11:54:46.523Z,3.67
2018-07-16T11:57:13.793Z,3.57
2018-07-16T11:59:41.049Z,3.57
2018-07-16T12:02:08.399Z,3.20
2018-07-16T12:04:35.685Z,3.63
2018-07-16T12:07:02.947Z,3.30
2018-07-16T12:09:30.185Z,3.13
2018-07-16T12:11:57.555Z,3.00
2018-07-16T12:14:24.854Z,3.20
2018-07-16T12:16:52.137Z,2.87
2018-07-16T12:19:19.401Z,3.30
2018-07-16T12:21:46.804Z,3.27
2018-07-16T12:24:14.098Z,3.27
2018-07-16T12:26:41.479Z,2.97
2018-07-16T12:29:08.758Z,2.90
2018-07-16T12:31:36.033Z,2.93
2018-07-16T12:34:03.402Z,3.20
2018-07-16T12:36:30.771Z,3.60
2018-07-16T12:38:58.070Z,3.30
2018-07-16T12:41:25.396Z,3.43
2018-07-16T12:43:52.635Z,3.20
2018-07-16T12:46:19.889Z,2.80
2018-07-16T12:48:47.181Z,3.30
2018-07-16T12:51:14.424Z,3.07
2018-07-16T12:53:41.674Z,2.80
2018-07-16T12:56:08.940Z,3.20
2018-07-16T12:58:36.193Z,2.80
2018-07-16T13:01:03.401Z,3.30
2018-07-16T13:03:30.684Z,3.10
2018-07-16T13:05:57.930Z,2.90
2018-07-16T13:08:25.145Z,2.97
2018-07-16T13:10:52.431Z,2.57
2018-07-16T13:13:19.672Z,2.53
2018-07-16T13:15:47.027Z,2.57
2018-07-16T13:18:14.258Z,2.20
2018-07-16T13:20:41.493Z,2.77
2018-07-16T13:23:08.720Z,2.20
2018-07-16T13:25:35.983Z,2.30
2018-07-16T13:28:03.260Z,2.20
2018-07-16T13:30:30.538Z,2.27
2018-07-16T13:32:57.785Z,2.10
2018-07-16T13:35:25.034Z,2.00
2018-07-16T13:37:52.308Z,2.40
2018-07-16T13:40:19.565Z,2.33
2018-07-16T13:42:46.835Z,2.60
2018-07-16T13:45:14.071Z,2.37
2018-07-16T13:47:41.311Z,2.37
2018-07-16T13:50:08.556Z,1.90
2018-07-16T13:52:35.866Z,2.40
2018-07-16T13:55:03.106Z,2.00
2018-07-16T13:57:30.332Z,1.73
2018-07-16T13:59:57.591Z,2.10
2018-07-16T14:02:24.865Z,2.10
2018-07-16T14:04:52.137Z,1.90
2018-07-16T14:07:19.420Z,1.90
2018-07-16T14:09:46.641Z,2.27
2018-07-16T14:12:13.883Z,1.83
2018-07-16T14:14:41.140Z,2.10
2018-07-16T14:17:08.371Z,2.07
2018-07-16T14:19:35.640Z,2.10
2018-07-16T14:22:05.380Z,1.80
2018-07-16T14:24:32.694Z,2.00
2018-07-16T14:26:59.946Z,1.90
2018-07-16T14:29:27.339Z,1.80
2018-07-16T14:31:54.602Z,1.90
2018-07-16T14:34:21.918Z,2.03
2018-07-16T14:36:49.204Z,1.90
2018-07-16T14:39:16.561Z,1.83
2018-07-16T14:41:43.759Z,1.70
2018-07-16T14:44:11.081Z,1.77
2018-07-16T14:46:38.329Z,1.80
2018-07-16T14:49:05.562Z,1.60
2018-07-16T14:51:32.903Z,1.93
2018-07-16T14:54:00.178Z,1.83
2018-07-16T14:56:27.447Z,1.83
2018-07-16T14:58:54.783Z,1.90
2018-07-16T15:01:22.036Z,2.00
2018-07-16T15:03:49.338Z,1.67
2018-07-16T15:06:16.723Z,1.60
2018-07-16T15:08:43.958Z,1.60
2018-07-16T15:11:11.171Z,1.80
2018-07-16T15:13:38.399Z,1.70
2018-07-16T15:16:05.631Z,1.80
2018-07-16T15:18:32.881Z,2.07
2018-07-16T15:21:00.325Z,1.93
2018-07-16T15:23:27.360Z,1.53
2018-07-16T15:25:54.776Z,1.30
2018-07-16T15:28:22.205Z,1.80
2018-07-16T15:30:49.483Z,2.10
2018-07-16T15:33:16.720Z,1.70
2018-07-16T15:35:43.981Z,1.70
2018-07-16T15:38:11.227Z,1.80
2018-07-16T15:40:38.540Z,1.80
2018-07-16T15:43:05.842Z,1.70
2018-07-16T15:45:33.072Z,1.50
2018-07-16T15:48:00.370Z,1.60
2018-07-16T15:50:27.577Z,1.63
2018-07-16T15:52:54.852Z,1.50
2018-07-16T15:55:22.122Z,1.80
2018-07-16T15:57:49.362Z,2.13
2018-07-16T16:00:16.608Z,1.73
2018-07-16T16:02:43.885Z,1.67
2018-07-16T16:05:11.099Z,1.80
2018-07-16T16:07:38.358Z,1.70
2018-07-16T16:10:05.622Z,1.93
2018-07-16T16:12:32.857Z,2.03
2018-07-16T16:15:00.084Z,1.80
2018-07-16T16:17:27.295Z,1.90
2018-07-16T16:19:54.696Z,1.97
2018-07-16T16:22:22.277Z,2.00
2018-07-16T16:24:49.487Z,1.80
2018-07-16T16:27:16.800Z,2.07
2018-07-16T16:29:44.224Z,1.83
2018-07-16T16:32:11.495Z,1.80
2018-07-16T16:34:38.751Z,2.10
2018-07-16T16:37:06.140Z,2.63
2018-07-16T16:39:33.426Z,2.07
2018-07-16T16:42:00.718Z,2.03
2018-07-16T16:44:28.016Z,2.10
2018-07-16T16:46:55.335Z,2.00
2018-07-16T16:49:22.592Z,1.93
2018-07-16T16:51:51.088Z,2.30
2018-07-16T16:54:18.331Z,2.17
2018-07-16T16:56:45.596Z,2.67
2018-07-16T16:59:12.947Z,2.07
2018-07-16T17:01:40.186Z,2.23
2018-07-16T17:04:07.775Z,2.23
2018-07-16T17:06:35.227Z,2.40
2018-07-16T17:09:02.892Z,2.10
2018-07-16T17:11:30.123Z,2.20
2018-07-16T17:13:57.488Z,2.33
2018-07-16T17:16:24.756Z,2.33
2018-07-16T17:18:53.079Z,2.67
2018-07-16T17:21:20.346Z,2.93
2018-07-16T17:23:47.747Z,2.57
2018-07-16T17:26:14.871Z,2.53
2018-07-16T17:28:42.204Z,2.67
2018-07-16T17:31:10.022Z,2.60
2018-07-16T17:33:37.267Z,2.60
2018-07-16T17:36:04.672Z,2.80
2018-07-16T17:38:32.910Z,2.57
2018-07-16T17:41:00.800Z,2.73
2018-07-16T17:43:28.615Z,2.83
2018-07-16T17:45:56.917Z,2.60
2018-07-16T17:48:24.509Z,2.30
2018-07-16T17:50:52.108Z,2.53
2018-07-16T17:53:20.018Z,2.67
2018-07-16T17:55:47.252Z,3.13
2018-07-16T17:58:14.559Z,2.90
2018-07-16T18:00:41.813Z,3.07
2018-07-16T18:03:09.068Z,2.30
2018-07-16T18:05:36.434Z,2.53
2018-07-16T18:08:03.692Z,2.40
2018-07-16T18:10:31.738Z,2.43
2018-07-16T18:12:59.004Z,2.63
2018-07-16T18:15:26.246Z,2.40
2018-07-16T18:17:53.511Z,3.50
2018-07-16T18:20:20.792Z,2.70
2018-07-16T18:22:48.086Z,2.67
2018-07-16T18:25:15.492Z,3.23
2018-07-16T18:27:42.900Z,2.80
2018-07-16T18:30:10.171Z,3.33
2018-07-16T18:32:37.971Z,3.07
2018-07-16T18:35:05.441Z,3.00
2018-07-16T18:37:32.969Z,2.60
2018-07-16T18:40:00.636Z,2.53
2018-07-16T18:42:27.969Z,2.63
2018-07-16T18:44:55.215Z,2.67
2018-07-16T18:47:22.480Z,3.07
2018-07-16T18:49:49.826Z,2.20
2018-07-16T18:52:17.130Z,3.03
2018-07-16T18:54:44.916Z,2.70
2018-07-16T18:57:12.296Z,2.70
2018-07-16T18:59:39.551Z,3.13
2018-07-16T19:02:07.914Z,3.37
2018-07-16T19:04:35.279Z,3.20
2018-07-16T19:07:02.988Z,3.23
2018-07-16T19:09:30.499Z,3.53
2018-07-16T19:11:57.806Z,3.67
2018-07-16T19:14:25.376Z,3.63
2018-07-16T19:16:52.653Z,3.73
2018-07-16T19:19:19.930Z,3.70
2018-07-16T19:21:47.272Z,3.70
2018-07-16T19:24:14.535Z,2.97
2018-07-16T19:26:41.849Z,3.37
2018-07-16T19:29:09.152Z,3.80
2018-07-16T19:31:36.438Z,3.70
2018-07-16T19:34:03.692Z,4.23
2018-07-16T19:36:30.956Z,4.20
2018-07-16T19:38:58.279Z,3.77
2018-07-16T19:41:25.524Z,3.90
2018-07-16T19:43:52.786Z,3.60
2018-07-16T19:46:20.092Z,4.37
2018-07-16T19:48:47.389Z,5.50
2018-07-16T19:51:14.691Z,4.33
2018-07-16T19:53:41.936Z,4.63
2018-07-16T19:56:09.199Z,4.20
2018-07-16T19:58:36.696Z,4.70
2018-07-16T20:01:03.989Z,4.60
2018-07-16T20:03:31.403Z,39.13
2018-07-16T20:05:58.647Z,18.80
2018-07-16T20:08:26.052Z,10.70
2018-07-16T20:10:53.534Z,4.90
2018-07-16T20:13:20.929Z,5.00
2018-07-16T20:15:48.281Z,4.10
2018-07-16T20:18:15.634Z,4.87
2018-07-16T20:20:48.976Z,6.00
2018-07-16T20:23:16.418Z,6.27
2018-07-16T20:25:43.940Z,5.30
2018-07-16T20:28:11.213Z,6.40
2018-07-16T20:30:38.624Z,6.77
2018-07-16T20:33:06.205Z,7.10
2018-07-16T20:35:33.480Z,7.23
2018-07-16T20:38:00.860Z,9.07
2018-07-16T20:40:28.190Z,9.67
2018-07-16T20:42:55.470Z,8.30
2018-07-16T20:45:22.907Z,7.00
2018-07-16T20:47:53.835Z,5.37
2018-07-16T20:50:21.316Z,5.37
2018-07-16T20:52:48.596Z,5.70
2018-07-16T20:55:15.923Z,6.00
2018-07-16T20:57:43.214Z,5.93
2018-07-16T21:00:10.454Z,5.47
2018-07-16T21:02:37.724Z,5.67
2018-07-16T21:05:04.988Z,6.07
2018-07-16T21:07:32.272Z,7.00
2018-07-16T21:09:59.523Z,6.60
2018-07-16T21:12:26.826Z,5.80
2018-07-16T21:14:54.195Z,5.60
2018-07-16T21:17:21.562Z,5.20
2018-07-16T21:19:48.879Z,5.77
2018-07-16T21:22:17.196Z,5.83
2018-07-16T21:24:44.558Z,5.83
2018-07-16T21:27:11.907Z,6.00
2018-07-16T21:29:39.299Z,6.03
2018-07-16T21:32:06.711Z,6.40
2018-07-16T21:34:34.144Z,5.67
2018-07-16T21:37:01.500Z,6.50
2018-07-16T21:39:28.763Z,5.50
2018-07-16T21:41:56.081Z,5.60
2018-07-16T21:44:23.478Z,5.50
2018-07-16T21:46:50.747Z,6.20
2018-07-16T21:49:18.059Z,6.30
2018-07-16T21:51:45.402Z,5.57
2018-07-16T21:54:12.670Z,6.47
2018-07-16T21:56:39.986Z,6.10
2018-07-16T21:59:07.326Z,5.73
2018-07-16T22:01:34.590Z,5.67
2018-07-16T22:04:01.875Z,5.53
2018-07-16T22:06:29.238Z,5.90
2018-07-16T22:08:56.499Z,5.80
2018-07-16T22:11:23.783Z,5.70
2018-07-16T22:13:51.146Z,6.00
2018-07-16T22:16:18.526Z,5.83
2018-07-16T22:18:45.804Z,5.87
2018-07-16T22:21:13.063Z,6.10
2018-07-16T22:23:40.328Z,6.47
2018-07-16T22:26:07.580Z,6.20
2018-07-16T22:28:34.851Z,5.70
2018-07-16T22:31:03.680Z,6.23
2018-07-16T22:33:30.965Z,6.40
2018-07-16T22:35:58.268Z,6.27
2018-07-16T22:38:25.563Z,6.57
2018-07-16T22:40:52.847Z,6.73
2018-07-16T22:43:20.090Z,6.80
2018-07-16T22:45:47.372Z,6.03
2018-07-16T22:48:14.634Z,6.00
2018-07-16T22:50:41.903Z,6.47
2018-07-16T22:53:09.155Z,6.53
2018-07-16T22:55:36.415Z,6.00
2018-07-16T22:58:03.676Z,6.17
2018-07-16T23:00:31.488Z,5.97
2018-07-16T23:02:59.284Z,6.13
2018-07-16T23:05:27.095Z,7.00
2018-07-16T23:07:54.657Z,6.80
2018-07-16T23:10:22.337Z,6.97
2018-07-16T23:12:49.970Z,7.87
2018-07-16T23:15:17.662Z,7.60
2018-07-16T23:17:46.496Z,8.00
2018-07-16T23:20:14.834Z,6.80
2018-07-16T23:22:52.916Z,6.50
2018-07-16T23:25:21.283Z,6.63
2018-07-16T23:27:49.322Z,7.00
2018-07-16T23:30:17.538Z,7.00
2018-07-16T23:32:46.746Z,6.57
2018-07-16T23:35:15.508Z,6.93
2018-07-16T23:37:43.152Z,7.40
2018-07-16T23:40:11.499Z,6.40
2018-07-16T23:42:41.012Z,6.40
2018-07-16T23:45:08.615Z,6.40
2018-07-16T23:47:35.959Z,7.10
2018-07-16T23:50:03.630Z,6.40
2018-07-16T23:52:31.123Z,7.10
2018-07-16T23:54:58.679Z,6.53
2018-07-16T23:57:25.939Z,6.73
2018-07-16T23:59:53.223Z,6.30
